sensor_id;sensor_type;location;lat;lon;timestamp;temperature;humidity
39519;DHT22;25200;53.394;10.414;2024-01-07T00:00:00;1.70;92.70
39519;DHT22;25200;53.394;10.414;2024-01-07T00:02:26;1.60;92.60
39519;DHT22;25200;53.394;10.414;2024-01-07T00:04:52;1.70;92.60
39519;DHT22;25200;53.394;10.414;2024-01-07T00:07:17;1.70;92.60
39519;DHT22;25200;53.394;10.414;2024-01-07T00:09:43;1.70;92.90
39519;DHT22;25200;53.394;10.414;2024-01-07T00:12:08;1.60;92.80
39519;DHT22;25200;53.394;10.414;2024-01-07T00:14:34;1.70;92.50
39519;DHT22;25200;53.394;10.414;2024-01-07T00:17:00;1.70;92.60
39519;DHT22;25200;53.394;10.414;2024-01-07T00:19:25;1.70;92.60
39519;DHT22;25200;53.394;10.414;2024-01-07T00:21:51;1.70;92.60
39519;DHT22;25200;53.394;10.414;2024-01-07T00:24:17;1.70;92.50
39519;DHT22;25200;53.394;10.414;2024-01-07T00:26:42;1.60;92.50
39519;DHT22;25200;53.394;10.414;2024-01-07T00:29:08;1.60;92.50
39519;DHT22;25200;53.394;10.414;2024-01-07T00:31:33;1.60;92.60
39519;DHT22;25200;53.394;10.414;2024-01-07T00:33:59;1.70;92.50
39519;DHT22;25200;53.394;10.414;2024-01-07T00:36:24;1.70;92.50
39519;DHT22;25200;53.394;10.414;2024-01-07T00:38:50;1.60;92.50
39519;DHT22;25200;53.394;10.414;2024-01-07T00:41:16;1.70;92.60
39519;DHT22;25200;53.394;10.414;2024-01-07T00:43:41;1.70;92.60
39519;DHT22;25200;53.394;10.414;2024-01-07T00:46:07;1.60;92.60
39519;DHT22;25200;53.394;10.414;2024-01-07T00:48:32;1.70;92.70
39519;DHT22;25200;53.394;10.414;2024-01-07T00:50:58;1.60;92.60
39519;DHT22;25200;53.394;10.414;2024-01-07T00:53:24;1.70;93.00
39519;DHT22;25200;53.394;10.414;2024-01-07T00:55:49;1.60;92.60
39519;DHT22;25200;53.394;10.414;2024-01-07T00:58:15;1.60;92.50
39519;DHT22;25200;53.394;10.414;2024-01-07T01:00:41;1.60;92.40
39519;DHT22;25200;53.394;10.414;2024-01-07T01:03:06;1.60;92.70
39519;DHT22;25200;53.394;10.414;2024-01-07T01:05:32;1.70;92.60
39519;DHT22;25200;53.394;10.414;2024-01-07T01:07:58;1.60;92.50
39519;DHT22;25200;53.394;10.414;2024-01-07T01:10:24;1.60;92.40
39519;DHT22;25200;53.394;10.414;2024-01-07T01:12:50;1.60;92.40
39519;DHT22;25200;53.394;10.414;2024-01-07T01:15:18;1.70;92.40
39519;DHT22;25200;53.394;10.414;2024-01-07T01:17:43;1.70;92.50
39519;DHT22;25200;53.394;10.414;2024-01-07T01:20:10;1.60;92.30
39519;DHT22;25200;53.394;10.414;2024-01-07T01:22:35;1.60;92.50
39519;DHT22;25200;53.394;10.414;2024-01-07T01:25:01;1.70;92.30
39519;DHT22;25200;53.394;10.414;2024-01-07T01:27:28;1.70;92.40
39519;DHT22;25200;53.394;10.414;2024-01-07T01:29:54;1.60;92.40
39519;DHT22;25200;53.394;10.414;2024-01-07T01:32:19;1.70;92.40
39519;DHT22;25200;53.394;10.414;2024-01-07T01:34:45;1.60;92.20
39519;DHT22;25200;53.394;10.414;2024-01-07T01:37:11;1.60;92.30
39519;DHT22;25200;53.394;10.414;2024-01-07T01:39:40;1.60;92.20
39519;DHT22;25200;53.394;10.414;2024-01-07T01:42:06;1.60;92.30
39519;DHT22;25200;53.394;10.414;2024-01-07T01:44:32;1.60;92.30
39519;DHT22;25200;53.394;10.414;2024-01-07T01:46:58;1.60;92.30
39519;DHT22;25200;53.394;10.414;2024-01-07T01:49:26;1.70;92.30
39519;DHT22;25200;53.394;10.414;2024-01-07T01:51:52;1.70;92.40
39519;DHT22;25200;53.394;10.414;2024-01-07T01:54:19;1.60;92.30
39519;DHT22;25200;53.394;10.414;2024-01-07T01:56:45;1.60;92.30
39519;DHT22;25200;53.394;10.414;2024-01-07T01:59:12;1.60;92.30
39519;DHT22;25200;53.394;10.414;2024-01-07T02:01:38;1.60;92.20
39519;DHT22;25200;53.394;10.414;2024-01-07T02:04:04;1.70;92.20
39519;DHT22;25200;53.394;10.414;2024-01-07T02:06:30;1.60;92.30
39519;DHT22;25200;53.394;10.414;2024-01-07T02:08:56;1.60;92.30
39519;DHT22;25200;53.394;10.414;2024-01-07T02:11:22;1.60;92.40
39519;DHT22;25200;53.394;10.414;2024-01-07T02:13:48;1.70;92.20
39519;DHT22;25200;53.394;10.414;2024-01-07T02:16:14;1.60;92.20
39519;DHT22;25200;53.394;10.414;2024-01-07T02:18:42;1.60;92.20
39519;DHT22;25200;53.394;10.414;2024-01-07T02:21:10;1.60;92.20
39519;DHT22;25200;53.394;10.414;2024-01-07T02:23:37;1.60;92.30
39519;DHT22;25200;53.394;10.414;2024-01-07T02:26:02;1.60;92.40
39519;DHT22;25200;53.394;10.414;2024-01-07T02:28:30;1.60;92.40
39519;DHT22;25200;53.394;10.414;2024-01-07T02:30:55;1.60;92.30
39519;DHT22;25200;53.394;10.414;2024-01-07T02:33:21;1.70;92.20
39519;DHT22;25200;53.394;10.414;2024-01-07T02:35:47;1.60;92.40
39519;DHT22;25200;53.394;10.414;2024-01-07T02:38:13;1.70;92.30
39519;DHT22;25200;53.394;10.414;2024-01-07T02:40:38;1.70;92.30
39519;DHT22;25200;53.394;10.414;2024-01-07T02:43:04;1.70;92.30
39519;DHT22;25200;53.394;10.414;2024-01-07T02:45:30;1.60;92.20
39519;DHT22;25200;53.394;10.414;2024-01-07T02:47:55;1.60;92.30
39519;DHT22;25200;53.394;10.414;2024-01-07T02:50:21;1.70;92.40
39519;DHT22;25200;53.394;10.414;2024-01-07T02:52:47;1.60;92.30
39519;DHT22;25200;53.394;10.414;2024-01-07T02:55:13;1.70;92.30
39519;DHT22;25200;53.394;10.414;2024-01-07T02:57:39;1.70;92.30
39519;DHT22;25200;53.394;10.414;2024-01-07T03:00:05;1.70;92.20
39519;DHT22;25200;53.394;10.414;2024-01-07T03:02:31;1.60;92.40
39519;DHT22;25200;53.394;10.414;2024-01-07T03:04:57;1.60;92.30
39519;DHT22;25200;53.394;10.414;2024-01-07T03:07:22;1.70;92.30
39519;DHT22;25200;53.394;10.414;2024-01-07T03:09:49;1.60;92.20
39519;DHT22;25200;53.394;10.414;2024-01-07T03:12:17;1.60;92.30
39519;DHT22;25200;53.394;10.414;2024-01-07T03:14:43;1.60;92.40
39519;DHT22;25200;53.394;10.414;2024-01-07T03:17:12;1.60;92.30
39519;DHT22;25200;53.394;10.414;2024-01-07T03:19:38;1.60;92.40
39519;DHT22;25200;53.394;10.414;2024-01-07T03:22:04;1.60;92.40
39519;DHT22;25200;53.394;10.414;2024-01-07T03:24:32;1.60;92.60
39519;DHT22;25200;53.394;10.414;2024-01-07T03:26:58;1.70;92.30
39519;DHT22;25200;53.394;10.414;2024-01-07T03:29:23;1.70;92.40
39519;DHT22;25200;53.394;10.414;2024-01-07T03:31:49;1.70;92.40
39519;DHT22;25200;53.394;10.414;2024-01-07T03:34:16;1.70;92.50
39519;DHT22;25200;53.394;10.414;2024-01-07T03:36:41;1.70;92.50
39519;DHT22;25200;53.394;10.414;2024-01-07T03:39:07;1.70;92.40
39519;DHT22;25200;53.394;10.414;2024-01-07T03:41:33;1.70;92.30
39519;DHT22;25200;53.394;10.414;2024-01-07T03:43:59;1.70;92.30
39519;DHT22;25200;53.394;10.414;2024-01-07T03:46:24;1.70;92.30
39519;DHT22;25200;53.394;10.414;2024-01-07T03:48:50;1.70;92.30
39519;DHT22;25200;53.394;10.414;2024-01-07T03:51:16;1.70;92.40
39519;DHT22;25200;53.394;10.414;2024-01-07T03:53:42;1.70;92.20
39519;DHT22;25200;53.394;10.414;2024-01-07T03:56:07;1.70;92.30
39519;DHT22;25200;53.394;10.414;2024-01-07T03:58:33;1.70;92.40
39519;DHT22;25200;53.394;10.414;2024-01-07T04:01:00;1.70;92.40
39519;DHT22;25200;53.394;10.414;2024-01-07T04:03:26;1.70;92.40
39519;DHT22;25200;53.394;10.414;2024-01-07T04:05:52;1.70;92.40
39519;DHT22;25200;53.394;10.414;2024-01-07T04:08:17;1.70;92.40
39519;DHT22;25200;53.394;10.414;2024-01-07T04:10:43;1.70;92.40
39519;DHT22;25200;53.394;10.414;2024-01-07T04:13:09;1.70;92.40
39519;DHT22;25200;53.394;10.414;2024-01-07T04:15:35;1.70;92.30
39519;DHT22;25200;53.394;10.414;2024-01-07T04:18:04;1.70;92.30
39519;DHT22;25200;53.394;10.414;2024-01-07T04:20:30;1.70;92.40
39519;DHT22;25200;53.394;10.414;2024-01-07T04:22:57;1.70;92.40
39519;DHT22;25200;53.394;10.414;2024-01-07T04:25:26;1.70;92.40
39519;DHT22;25200;53.394;10.414;2024-01-07T04:27:51;1.70;92.40
39519;DHT22;25200;53.394;10.414;2024-01-07T04:30:17;1.70;92.40
39519;DHT22;25200;53.394;10.414;2024-01-07T04:32:43;1.70;92.40
39519;DHT22;25200;53.394;10.414;2024-01-07T04:35:08;1.70;92.30
39519;DHT22;25200;53.394;10.414;2024-01-07T04:37:35;1.70;92.40
39519;DHT22;25200;53.394;10.414;2024-01-07T04:40:01;1.70;92.30
39519;DHT22;25200;53.394;10.414;2024-01-07T04:42:26;1.70;92.30
39519;DHT22;25200;53.394;10.414;2024-01-07T04:44:52;1.70;92.30
39519;DHT22;25200;53.394;10.414;2024-01-07T04:47:31;1.70;92.30
39519;DHT22;25200;53.394;10.414;2024-01-07T04:49:59;1.70;92.30
39519;DHT22;25200;53.394;10.414;2024-01-07T04:52:25;1.70;92.40
39519;DHT22;25200;53.394;10.414;2024-01-07T04:54:52;1.70;92.20
39519;DHT22;25200;53.394;10.414;2024-01-07T04:57:18;1.70;92.20
39519;DHT22;25200;53.394;10.414;2024-01-07T04:59:44;1.70;92.20
39519;DHT22;25200;53.394;10.414;2024-01-07T05:02:10;1.70;92.20
39519;DHT22;25200;53.394;10.414;2024-01-07T05:04:36;1.70;92.20
39519;DHT22;25200;53.394;10.414;2024-01-07T05:07:02;1.70;92.20
39519;DHT22;25200;53.394;10.414;2024-01-07T05:09:27;1.70;92.50
39519;DHT22;25200;53.394;10.414;2024-01-07T05:11:53;1.70;92.20
39519;DHT22;25200;53.394;10.414;2024-01-07T05:14:19;1.70;92.20
39519;DHT22;25200;53.394;10.414;2024-01-07T05:16:44;1.70;92.20
39519;DHT22;25200;53.394;10.414;2024-01-07T05:19:10;1.70;92.20
39519;DHT22;25200;53.394;10.414;2024-01-07T05:21:35;1.70;92.20
39519;DHT22;25200;53.394;10.414;2024-01-07T05:24:01;1.70;92.10
39519;DHT22;25200;53.394;10.414;2024-01-07T05:26:27;1.70;92.20
39519;DHT22;25200;53.394;10.414;2024-01-07T05:28:52;1.70;92.20
39519;DHT22;25200;53.394;10.414;2024-01-07T05:31:18;1.70;92.20
39519;DHT22;25200;53.394;10.414;2024-01-07T05:33:47;1.70;92.20
39519;DHT22;25200;53.394;10.414;2024-01-07T05:36:12;1.70;92.20
39519;DHT22;25200;53.394;10.414;2024-01-07T05:38:38;1.70;92.20
39519;DHT22;25200;53.394;10.414;2024-01-07T05:41:04;1.70;92.20
39519;DHT22;25200;53.394;10.414;2024-01-07T05:43:30;1.70;92.30
39519;DHT22;25200;53.394;10.414;2024-01-07T05:45:56;1.70;92.30
39519;DHT22;25200;53.394;10.414;2024-01-07T05:48:22;1.70;92.30
39519;DHT22;25200;53.394;10.414;2024-01-07T05:50:48;1.70;92.20
39519;DHT22;25200;53.394;10.414;2024-01-07T05:53:14;1.70;92.30
39519;DHT22;25200;53.394;10.414;2024-01-07T05:55:40;1.70;92.20
39519;DHT22;25200;53.394;10.414;2024-01-07T05:58:05;1.70;92.30
39519;DHT22;25200;53.394;10.414;2024-01-07T06:00:31;1.70;92.20
39519;DHT22;25200;53.394;10.414;2024-01-07T06:02:57;1.70;92.30
39519;DHT22;25200;53.394;10.414;2024-01-07T06:05:23;1.70;92.30
39519;DHT22;25200;53.394;10.414;2024-01-07T06:07:48;1.70;92.20
39519;DHT22;25200;53.394;10.414;2024-01-07T06:10:14;1.70;92.20
39519;DHT22;25200;53.394;10.414;2024-01-07T06:12:40;1.70;92.20
39519;DHT22;25200;53.394;10.414;2024-01-07T06:15:06;1.70;92.20
39519;DHT22;25200;53.394;10.414;2024-01-07T06:17:32;1.70;92.20
39519;DHT22;25200;53.394;10.414;2024-01-07T06:19:57;1.70;92.20
39519;DHT22;25200;53.394;10.414;2024-01-07T06:22:23;1.70;92.20
39519;DHT22;25200;53.394;10.414;2024-01-07T06:24:49;1.70;92.30
39519;DHT22;25200;53.394;10.414;2024-01-07T06:27:14;1.70;92.20
39519;DHT22;25200;53.394;10.414;2024-01-07T06:29:40;1.70;92.20
39519;DHT22;25200;53.394;10.414;2024-01-07T06:32:06;1.70;92.20
39519;DHT22;25200;53.394;10.414;2024-01-07T06:34:31;1.70;92.20
39519;DHT22;25200;53.394;10.414;2024-01-07T06:36:58;1.70;92.20
39519;DHT22;25200;53.394;10.414;2024-01-07T06:39:24;1.70;92.30
39519;DHT22;25200;53.394;10.414;2024-01-07T06:41:52;1.70;92.20
39519;DHT22;25200;53.394;10.414;2024-01-07T06:44:18;1.70;92.30
39519;DHT22;25200;53.394;10.414;2024-01-07T06:46:43;1.70;92.30
39519;DHT22;25200;53.394;10.414;2024-01-07T06:49:09;1.70;92.30
39519;DHT22;25200;53.394;10.414;2024-01-07T06:51:35;1.70;92.30
39519;DHT22;25200;53.394;10.414;2024-01-07T06:54:01;1.70;92.30
39519;DHT22;25200;53.394;10.414;2024-01-07T06:56:26;1.70;92.30
39519;DHT22;25200;53.394;10.414;2024-01-07T06:58:52;1.70;92.30
39519;DHT22;25200;53.394;10.414;2024-01-07T07:01:20;1.70;92.30
39519;DHT22;25200;53.394;10.414;2024-01-07T07:03:47;1.80;92.30
39519;DHT22;25200;53.394;10.414;2024-01-07T07:06:12;1.80;92.30
39519;DHT22;25200;53.394;10.414;2024-01-07T07:08:38;1.80;92.20
39519;DHT22;25200;53.394;10.414;2024-01-07T07:11:03;1.80;92.30
39519;DHT22;25200;53.394;10.414;2024-01-07T07:13:29;1.70;92.30
39519;DHT22;25200;53.394;10.414;2024-01-07T07:15:55;1.70;92.30
39519;DHT22;25200;53.394;10.414;2024-01-07T07:18:20;1.70;92.30
39519;DHT22;25200;53.394;10.414;2024-01-07T07:20:47;1.70;92.40
39519;DHT22;25200;53.394;10.414;2024-01-07T07:23:12;1.70;92.40
39519;DHT22;25200;53.394;10.414;2024-01-07T07:25:39;1.70;92.40
39519;DHT22;25200;53.394;10.414;2024-01-07T07:28:05;1.70;92.40
39519;DHT22;25200;53.394;10.414;2024-01-07T07:30:30;1.70;92.40
39519;DHT22;25200;53.394;10.414;2024-01-07T07:32:56;1.70;92.30
39519;DHT22;25200;53.394;10.414;2024-01-07T07:35:21;1.70;92.30
39519;DHT22;25200;53.394;10.414;2024-01-07T07:37:47;1.70;92.30
39519;DHT22;25200;53.394;10.414;2024-01-07T07:40:13;1.70;92.40
39519;DHT22;25200;53.394;10.414;2024-01-07T07:42:39;1.70;92.40
39519;DHT22;25200;53.394;10.414;2024-01-07T07:45:05;1.70;92.40
39519;DHT22;25200;53.394;10.414;2024-01-07T07:47:31;1.70;92.40
39519;DHT22;25200;53.394;10.414;2024-01-07T07:49:56;1.80;92.40
39519;DHT22;25200;53.394;10.414;2024-01-07T07:52:22;1.80;92.40
39519;DHT22;25200;53.394;10.414;2024-01-07T07:54:51;1.80;92.40
39519;DHT22;25200;53.394;10.414;2024-01-07T07:57:17;1.80;92.30
39519;DHT22;25200;53.394;10.414;2024-01-07T07:59:42;1.80;92.40
39519;DHT22;25200;53.394;10.414;2024-01-07T08:02:08;1.80;92.40
39519;DHT22;25200;53.394;10.414;2024-01-07T08:04:34;1.80;92.30
39519;DHT22;25200;53.394;10.414;2024-01-07T08:06:59;1.70;92.40
39519;DHT22;25200;53.394;10.414;2024-01-07T08:09:26;1.70;92.40
39519;DHT22;25200;53.394;10.414;2024-01-07T08:11:52;1.70;92.40
39519;DHT22;25200;53.394;10.414;2024-01-07T08:14:17;1.80;92.30
39519;DHT22;25200;53.394;10.414;2024-01-07T08:16:43;1.80;92.30
39519;DHT22;25200;53.394;10.414;2024-01-07T08:19:08;1.70;92.30
39519;DHT22;25200;53.394;10.414;2024-01-07T08:21:35;1.70;92.30
39519;DHT22;25200;53.394;10.414;2024-01-07T08:24:00;1.70;92.20
39519;DHT22;25200;53.394;10.414;2024-01-07T08:26:26;1.70;92.20
39519;DHT22;25200;53.394;10.414;2024-01-07T08:28:52;1.70;92.30
39519;DHT22;25200;53.394;10.414;2024-01-07T08:31:17;1.70;92.30
39519;DHT22;25200;53.394;10.414;2024-01-07T08:33:43;1.70;92.30
39519;DHT22;25200;53.394;10.414;2024-01-07T08:36:09;1.70;92.30
39519;DHT22;25200;53.394;10.414;2024-01-07T08:38:34;1.70;92.30
39519;DHT22;25200;53.394;10.414;2024-01-07T08:41:00;1.70;92.30
39519;DHT22;25200;53.394;10.414;2024-01-07T08:43:26;1.70;92.20
39519;DHT22;25200;53.394;10.414;2024-01-07T08:45:52;1.70;92.20
39519;DHT22;25200;53.394;10.414;2024-01-07T08:48:17;1.70;92.20
39519;DHT22;25200;53.394;10.414;2024-01-07T08:50:43;1.70;92.20
39519;DHT22;25200;53.394;10.414;2024-01-07T08:53:09;1.70;92.10
39519;DHT22;25200;53.394;10.414;2024-01-07T08:55:34;1.70;92.20
39519;DHT22;25200;53.394;10.414;2024-01-07T08:58:00;1.70;92.10
39519;DHT22;25200;53.394;10.414;2024-01-07T09:00:25;1.70;92.20
39519;DHT22;25200;53.394;10.414;2024-01-07T09:02:55;1.70;92.10
39519;DHT22;25200;53.394;10.414;2024-01-07T09:05:21;1.70;92.10
39519;DHT22;25200;53.394;10.414;2024-01-07T09:07:46;1.70;92.20
39519;DHT22;25200;53.394;10.414;2024-01-07T09:10:12;1.70;92.10
39519;DHT22;25200;53.394;10.414;2024-01-07T09:12:39;1.70;92.10
39519;DHT22;25200;53.394;10.414;2024-01-07T09:15:05;1.70;92.10
39519;DHT22;25200;53.394;10.414;2024-01-07T09:17:37;1.70;92.20
39519;DHT22;25200;53.394;10.414;2024-01-07T09:20:07;1.70;92.20
39519;DHT22;25200;53.394;10.414;2024-01-07T09:22:33;1.70;92.10
39519;DHT22;25200;53.394;10.414;2024-01-07T09:25:02;1.70;92.10
39519;DHT22;25200;53.394;10.414;2024-01-07T09:27:29;1.70;92.10
39519;DHT22;25200;53.394;10.414;2024-01-07T09:29:54;1.70;92.00
39519;DHT22;25200;53.394;10.414;2024-01-07T09:32:20;1.70;92.00
39519;DHT22;25200;53.394;10.414;2024-01-07T09:34:46;1.70;92.20
39519;DHT22;25200;53.394;10.414;2024-01-07T09:37:11;1.70;92.00
39519;DHT22;25200;53.394;10.414;2024-01-07T09:39:40;1.70;92.00
39519;DHT22;25200;53.394;10.414;2024-01-07T09:42:17;1.70;92.00
39519;DHT22;25200;53.394;10.414;2024-01-07T09:44:43;1.70;92.00
39519;DHT22;25200;53.394;10.414;2024-01-07T09:47:14;1.70;92.00
39519;DHT22;25200;53.394;10.414;2024-01-07T09:49:40;1.70;92.00
39519;DHT22;25200;53.394;10.414;2024-01-07T09:52:08;1.70;91.90
39519;DHT22;25200;53.394;10.414;2024-01-07T09:54:36;1.70;92.00
39519;DHT22;25200;53.394;10.414;2024-01-07T09:57:04;1.70;92.00
39519;DHT22;25200;53.394;10.414;2024-01-07T09:59:35;1.70;92.10
39519;DHT22;25200;53.394;10.414;2024-01-07T10:02:03;1.70;92.00
39519;DHT22;25200;53.394;10.414;2024-01-07T10:04:28;1.70;92.10
39519;DHT22;25200;53.394;10.414;2024-01-07T10:06:55;1.70;92.30
39519;DHT22;25200;53.394;10.414;2024-01-07T10:09:24;1.60;92.00
39519;DHT22;25200;53.394;10.414;2024-01-07T10:11:52;1.70;92.10
39519;DHT22;25200;53.394;10.414;2024-01-07T10:14:17;1.70;92.10
39519;DHT22;25200;53.394;10.414;2024-01-07T10:16:43;1.70;92.00
39519;DHT22;25200;53.394;10.414;2024-01-07T10:19:09;1.70;92.00
39519;DHT22;25200;53.394;10.414;2024-01-07T10:21:35;1.70;92.00
39519;DHT22;25200;53.394;10.414;2024-01-07T10:24:13;1.70;92.10
39519;DHT22;25200;53.394;10.414;2024-01-07T10:26:40;1.70;92.10
39519;DHT22;25200;53.394;10.414;2024-01-07T10:29:06;1.70;92.10
39519;DHT22;25200;53.394;10.414;2024-01-07T10:31:33;1.70;92.10
39519;DHT22;25200;53.394;10.414;2024-01-07T10:33:59;1.70;92.10
39519;DHT22;25200;53.394;10.414;2024-01-07T10:36:25;1.70;92.10
39519;DHT22;25200;53.394;10.414;2024-01-07T10:38:51;1.70;92.00
39519;DHT22;25200;53.394;10.414;2024-01-07T10:41:20;1.70;92.00
39519;DHT22;25200;53.394;10.414;2024-01-07T10:43:47;1.70;92.00
39519;DHT22;25200;53.394;10.414;2024-01-07T10:46:15;1.70;92.00
39519;DHT22;25200;53.394;10.414;2024-01-07T10:48:53;1.70;92.00
39519;DHT22;25200;53.394;10.414;2024-01-07T10:51:20;1.70;91.90
39519;DHT22;25200;53.394;10.414;2024-01-07T10:53:53;1.70;91.90
39519;DHT22;25200;53.394;10.414;2024-01-07T10:56:25;1.70;92.20
39519;DHT22;25200;53.394;10.414;2024-01-07T10:58:55;1.70;92.00
39519;DHT22;25200;53.394;10.414;2024-01-07T11:01:22;1.70;91.90
39519;DHT22;25200;53.394;10.414;2024-01-07T11:06:42;1.70;91.90
39519;DHT22;25200;53.394;10.414;2024-01-07T11:09:26;1.70;92.00
39519;DHT22;25200;53.394;10.414;2024-01-07T11:11:55;1.70;92.00
39519;DHT22;25200;53.394;10.414;2024-01-07T11:14:40;1.70;92.00
39519;DHT22;25200;53.394;10.414;2024-01-07T11:17:06;1.70;92.20
39519;DHT22;25200;53.394;10.414;2024-01-07T11:19:32;1.70;92.00
39519;DHT22;25200;53.394;10.414;2024-01-07T11:25:01;1.70;92.00
39519;DHT22;25200;53.394;10.414;2024-01-07T11:27:30;1.70;92.00
39519;DHT22;25200;53.394;10.414;2024-01-07T11:30:08;1.70;91.90
39519;DHT22;25200;53.394;10.414;2024-01-07T11:32:35;1.70;92.00
39519;DHT22;25200;53.394;10.414;2024-01-07T11:35:01;1.70;92.00
39519;DHT22;25200;53.394;10.414;2024-01-07T11:37:30;1.70;92.00
39519;DHT22;25200;53.394;10.414;2024-01-07T11:39:57;1.70;92.10
39519;DHT22;25200;53.394;10.414;2024-01-07T11:42:23;1.70;91.80
39519;DHT22;25200;53.394;10.414;2024-01-07T11:44:52;1.70;92.00
39519;DHT22;25200;53.394;10.414;2024-01-07T11:47:18;1.80;92.00
39519;DHT22;25200;53.394;10.414;2024-01-07T11:49:45;1.80;92.00
39519;DHT22;25200;53.394;10.414;2024-01-07T11:52:11;1.80;92.00
39519;DHT22;25200;53.394;10.414;2024-01-07T11:54:40;1.80;91.90
39519;DHT22;25200;53.394;10.414;2024-01-07T11:57:06;1.80;91.90
39519;DHT22;25200;53.394;10.414;2024-01-07T11:59:33;1.80;91.80
39519;DHT22;25200;53.394;10.414;2024-01-07T12:02:00;1.80;91.80
39519;DHT22;25200;53.394;10.414;2024-01-07T12:04:26;1.80;91.80
39519;DHT22;25200;53.394;10.414;2024-01-07T12:06:53;1.80;91.90
39519;DHT22;25200;53.394;10.414;2024-01-07T12:09:19;1.80;91.90
39519;DHT22;25200;53.394;10.414;2024-01-07T12:11:45;1.80;91.90
39519;DHT22;25200;53.394;10.414;2024-01-07T12:14:11;1.80;91.80
39519;DHT22;25200;53.394;10.414;2024-01-07T12:16:37;1.80;91.80
39519;DHT22;25200;53.394;10.414;2024-01-07T12:19:03;1.80;91.90
39519;DHT22;25200;53.394;10.414;2024-01-07T12:21:29;1.80;91.90
39519;DHT22;25200;53.394;10.414;2024-01-07T12:23:55;1.80;91.90
39519;DHT22;25200;53.394;10.414;2024-01-07T12:26:26;1.80;91.80
39519;DHT22;25200;53.394;10.414;2024-01-07T12:28:53;1.80;91.80
39519;DHT22;25200;53.394;10.414;2024-01-07T12:31:20;1.80;91.80
39519;DHT22;25200;53.394;10.414;2024-01-07T12:33:47;1.80;91.80
39519;DHT22;25200;53.394;10.414;2024-01-07T12:36:12;1.80;91.90
39519;DHT22;25200;53.394;10.414;2024-01-07T12:38:38;1.80;91.90
39519;DHT22;25200;53.394;10.414;2024-01-07T12:41:04;1.80;91.90
39519;DHT22;25200;53.394;10.414;2024-01-07T12:43:30;1.80;91.90
39519;DHT22;25200;53.394;10.414;2024-01-07T12:45:56;1.80;91.90
39519;DHT22;25200;53.394;10.414;2024-01-07T12:48:23;1.80;91.90
39519;DHT22;25200;53.394;10.414;2024-01-07T12:50:49;1.80;91.90
39519;DHT22;25200;53.394;10.414;2024-01-07T12:53:14;1.80;91.80
39519;DHT22;25200;53.394;10.414;2024-01-07T12:55:40;1.80;91.80
39519;DHT22;25200;53.394;10.414;2024-01-07T12:58:06;1.80;91.80
39519;DHT22;25200;53.394;10.414;2024-01-07T13:00:32;1.80;91.80
39519;DHT22;25200;53.394;10.414;2024-01-07T13:02:59;1.80;91.80
39519;DHT22;25200;53.394;10.414;2024-01-07T13:05:25;1.80;91.80
39519;DHT22;25200;53.394;10.414;2024-01-07T13:07:50;1.80;91.80
39519;DHT22;25200;53.394;10.414;2024-01-07T13:10:16;1.80;91.80
39519;DHT22;25200;53.394;10.414;2024-01-07T13:12:42;1.80;91.80
39519;DHT22;25200;53.394;10.414;2024-01-07T13:15:08;1.80;91.80
39519;DHT22;25200;53.394;10.414;2024-01-07T13:17:34;1.80;91.80
39519;DHT22;25200;53.394;10.414;2024-01-07T13:20:00;1.80;91.80
39519;DHT22;25200;53.394;10.414;2024-01-07T13:22:26;1.80;91.80
39519;DHT22;25200;53.394;10.414;2024-01-07T13:24:52;1.80;91.80
39519;DHT22;25200;53.394;10.414;2024-01-07T13:27:19;1.80;91.80
39519;DHT22;25200;53.394;10.414;2024-01-07T13:29:46;1.80;91.80
39519;DHT22;25200;53.394;10.414;2024-01-07T13:32:13;1.80;91.80
39519;DHT22;25200;53.394;10.414;2024-01-07T13:34:47;1.80;91.80
39519;DHT22;25200;53.394;10.414;2024-01-07T13:37:13;1.80;91.70
39519;DHT22;25200;53.394;10.414;2024-01-07T13:39:39;1.80;91.70
39519;DHT22;25200;53.394;10.414;2024-01-07T13:42:05;1.80;91.80
39519;DHT22;25200;53.394;10.414;2024-01-07T13:44:31;1.80;91.70
39519;DHT22;25200;53.394;10.414;2024-01-07T13:46:56;1.80;91.70
39519;DHT22;25200;53.394;10.414;2024-01-07T13:49:22;1.80;91.80
39519;DHT22;25200;53.394;10.414;2024-01-07T13:51:48;1.80;91.60
39519;DHT22;25200;53.394;10.414;2024-01-07T13:54:13;1.80;91.70
39519;DHT22;25200;53.394;10.414;2024-01-07T13:56:43;1.80;91.70
39519;DHT22;25200;53.394;10.414;2024-01-07T13:59:10;1.80;91.60
39519;DHT22;25200;53.394;10.414;2024-01-07T14:01:36;1.80;91.70
39519;DHT22;25200;53.394;10.414;2024-01-07T14:04:05;1.80;91.60
39519;DHT22;25200;53.394;10.414;2024-01-07T14:06:31;1.80;91.60
39519;DHT22;25200;53.394;10.414;2024-01-07T14:08:57;1.80;91.60
39519;DHT22;25200;53.394;10.414;2024-01-07T14:11:23;1.80;91.50
39519;DHT22;25200;53.394;10.414;2024-01-07T14:13:49;1.70;91.60
39519;DHT22;25200;53.394;10.414;2024-01-07T14:16:15;1.80;91.50
39519;DHT22;25200;53.394;10.414;2024-01-07T14:18:41;1.80;91.40
39519;DHT22;25200;53.394;10.414;2024-01-07T14:21:06;1.70;91.50
39519;DHT22;25200;53.394;10.414;2024-01-07T14:23:33;1.70;91.50
39519;DHT22;25200;53.394;10.414;2024-01-07T14:25:59;1.70;91.50
39519;DHT22;25200;53.394;10.414;2024-01-07T14:28:25;1.70;91.50
39519;DHT22;25200;53.394;10.414;2024-01-07T14:30:51;1.70;91.60
39519;DHT22;25200;53.394;10.414;2024-01-07T14:33:16;1.70;91.50
39519;DHT22;25200;53.394;10.414;2024-01-07T14:35:42;1.70;91.40
39519;DHT22;25200;53.394;10.414;2024-01-07T14:38:08;1.80;91.40
39519;DHT22;25200;53.394;10.414;2024-01-07T14:40:34;1.70;91.30
39519;DHT22;25200;53.394;10.414;2024-01-07T14:42:59;1.70;91.30
39519;DHT22;25200;53.394;10.414;2024-01-07T14:45:26;1.70;91.40
39519;DHT22;25200;53.394;10.414;2024-01-07T14:47:52;1.70;91.50
39519;DHT22;25200;53.394;10.414;2024-01-07T14:50:18;1.70;91.40
39519;DHT22;25200;53.394;10.414;2024-01-07T14:52:44;1.70;91.40
39519;DHT22;25200;53.394;10.414;2024-01-07T14:55:10;1.70;91.30
39519;DHT22;25200;53.394;10.414;2024-01-07T14:57:36;1.70;91.40
39519;DHT22;25200;53.394;10.414;2024-01-07T15:00:02;1.70;91.30
39519;DHT22;25200;53.394;10.414;2024-01-07T15:02:30;1.70;91.20
39519;DHT22;25200;53.394;10.414;2024-01-07T15:04:56;1.70;91.20
39519;DHT22;25200;53.394;10.414;2024-01-07T15:07:22;1.70;91.30
39519;DHT22;25200;53.394;10.414;2024-01-07T15:09:48;1.70;91.20
39519;DHT22;25200;53.394;10.414;2024-01-07T15:12:14;1.70;91.20
39519;DHT22;25200;53.394;10.414;2024-01-07T15:14:39;1.70;91.20
39519;DHT22;25200;53.394;10.414;2024-01-07T15:17:05;1.70;91.10
39519;DHT22;25200;53.394;10.414;2024-01-07T15:19:30;1.60;91.10
39519;DHT22;25200;53.394;10.414;2024-01-07T15:21:56;1.60;91.10
39519;DHT22;25200;53.394;10.414;2024-01-07T15:24:22;1.60;91.10
39519;DHT22;25200;53.394;10.414;2024-01-07T15:26:47;1.60;90.90
39519;DHT22;25200;53.394;10.414;2024-01-07T15:29:13;1.60;90.90